Time;durP1;ratioP1;P1;durP2;ratioP2;P2;SDS_P1;SDS_P2;PMS_P1;PMS_P2;Temp;Humidity;BMP_temperature;BMP_pressure;BME280_temperature;BME280_humidity;BME280_pressure;Samples;Min_cycle;Max_cycle;Signal;HPM_P1;HPM_P2
2023/07/27 00:00:21;;;;;;;1.90;0.40;;;;;;;12.93;64.20;97601.31;10403156;28;20056;-64
2023/07/27 00:06:08;;;;;;;0.90;0.30;;;;;;;12.95;64.49;97598.66;10533959;27;20370;-64
2023/07/27 00:11:29;;;;;;;1.75;0.40;;;;;;;12.91;64.85;97599.13;10533008;28;20456;-64
2023/07/27 00:16:50;;;;;;;0.70;0.40;;;;;;;12.88;65.05;97598.31;10533901;28;20135;-65
2023/07/27 00:22:10;;;;;;;0.73;0.50;;;;;;;12.84;65.36;97595.28;10532633;28;20047;-64
2023/07/27 00:27:31;;;;;;;1.02;0.30;;;;;;;12.81;65.39;97595.75;10533435;28;20379;-64
2023/07/27 00:32:52;;;;;;;1.33;0.40;;;;;;;12.79;65.78;97590.78;10532154;28;20101;-64
2023/07/27 00:38:13;;;;;;;1.40;0.47;;;;;;;12.69;66.06;97590.22;10517810;28;20044;-64
2023/07/27 00:43:37;;;;;;;;;;;;;;;12.63;66.52;97600.31;10518421;28;20037;-64
2023/07/27 00:48:58;;;;;;;1.25;0.40;;;;;;;12.60;66.58;97599.50;10531475;28;19927;-64
2023/07/27 00:54:19;;;;;;;1.17;0.40;;;;;;;12.56;66.62;97590.88;10517297;28;20044;-64
2023/07/27 00:59:39;;;;;;;2.60;0.50;;;;;;;12.54;66.83;97593.53;10517129;28;20036;-64
2023/07/27 01:05:00;;;;;;;0.95;0.50;;;;;;;12.52;67.01;97593.44;10502820;28;20056;-64
2023/07/27 01:10:51;;;;;;;1.02;0.40;;;;;;;12.48;67.55;97587.59;10530921;28;20052;-64
2023/07/27 01:16:15;;;;;;;1.25;0.50;;;;;;;12.50;67.61;97590.50;10498695;28;20047;-64
2023/07/27 01:21:38;;;;;;;2.85;0.50;;;;;;;12.50;67.89;97584.91;10461107;28;20047;-64
2023/07/27 01:27:15;;;;;;;1.40;0.50;;;;;;;12.53;68.08;97583.69;10474732;28;20036;-64
2023/07/27 01:32:38;;;;;;;1.88;0.70;;;;;;;12.52;67.99;97580.16;10501759;28;20121;-64
2023/07/27 01:37:59;;;;;;;1.48;0.60;;;;;;;12.52;68.67;97576.63;10501958;28;20082;-65
2023/07/27 01:43:20;;;;;;;1.55;0.60;;;;;;;12.52;68.62;97585.03;10501386;28;20051;-64
2023/07/27 01:48:41;;;;;;;1.30;0.70;;;;;;;12.47;68.73;97583.34;10501393;28;20398;-65
2023/07/27 01:54:02;;;;;;;3.00;0.80;;;;;;;12.41;69.34;97583.72;10501356;28;20049;-64
2023/07/27 01:59:24;;;;;;;1.60;0.52;;;;;;;12.32;69.71;97571.31;10472990;28;20530;-65
2023/07/27 02:04:45;;;;;;;2.05;0.90;;;;;;;12.29;69.98;97578.16;10500418;28;20072;-64
2023/07/27 02:10:06;;;;;;;1.67;1.00;;;;;;;12.28;70.33;97582.28;10500423;28;20498;-65
2023/07/27 02:15:30;;;;;;;1.67;0.93;;;;;;;12.26;70.34;97576.59;10486341;28;20045;-65
2023/07/27 02:20:51;;;;;;;2.72;0.75;;;;;;;12.23;70.84;97579.84;10485911;28;20051;-65
2023/07/27 02:26:12;;;;;;;2.22;0.90;;;;;;;12.20;71.02;97587.41;10470742;28;20071;-65
2023/07/27 02:31:33;;;;;;;2.63;0.80;;;;;;;12.16;71.44;97581.59;10499452;28;20039;-64
2023/07/27 02:36:54;;;;;;;1.27;0.77;;;;;;;12.12;71.54;97569.41;10500403;28;20143;-65
2023/07/27 02:42:14;;;;;;;3.47;0.80;;;;;;;12.09;72.00;97567.84;10499159;28;20154;-65
2023/07/27 02:47:36;;;;;;;2.38;0.88;;;;;;;12.10;72.03;97574.91;10471229;28;20051;-64
2023/07/27 02:52:58;;;;;;;2.65;0.93;;;;;;;12.07;72.60;97573.34;10484950;28;20101;-65
2023/07/27 02:58:19;;;;;;;4.05;1.00;;;;;;;12.00;72.41;97563.84;10470587;28;20040;-65
2023/07/27 03:03:40;;;;;;;2.40;0.85;;;;;;;11.93;72.85;97573.22;10498139;28;20550;-65
2023/07/27 03:09:05;;;;;;;2.90;1.00;;;;;;;11.93;72.84;97576.00;10484662;28;20047;-65
2023/07/27 03:14:26;;;;;;;2.63;1.10;;;;;;;11.85;73.34;97570.66;10456436;28;20403;-64
2023/07/27 03:19:47;;;;;;;4.45;0.85;;;;;;;11.88;73.41;97575.03;10483824;28;20067;-65
2023/07/27 03:25:08;;;;;;;2.35;1.20;;;;;;;11.85;74.25;97576.25;10497418;28;20044;-64
2023/07/27 03:30:29;;;;;;;2.83;1.15;;;;;;;11.91;74.03;97565.44;10469835;28;20036;-65
2023/07/27 03:35:50;;;;;;;1.85;1.10;;;;;;;11.98;74.44;97566.53;10483205;28;20055;-65
2023/07/27 03:41:12;;;;;;;2.78;1.27;;;;;;;12.06;74.31;97572.56;10497233;28;20040;-65
2023/07/27 03:46:33;;;;;;;3.50;1.10;;;;;;;12.19;74.03;97569.16;10483040;28;20040;-65
2023/07/27 03:51:54;;;;;;;2.60;1.30;;;;;;;12.24;74.29;97565.25;10482987;28;20485;-65
2023/07/27 03:57:15;;;;;;;2.78;1.30;;;;;;;12.33;73.86;97560.84;10497071;28;20047;-65
2023/07/27 04:02:36;;;;;;;4.60;1.33;;;;;;;12.39;73.99;97554.88;10482835;28;20063;-65
2023/07/27 04:07:57;;;;;;;1.80;1.15;;;;;;;12.52;74.10;97565.44;10500110;28;20090;-71
2023/07/27 04:13:18;;;;;;;1.85;1.00;;;;;;;12.70;73.97;97568.53;10499351;28;20070;-64
2023/07/27 04:18:38;;;;;;;2.47;1.17;;;;;;;12.88;73.51;97577.97;10496459;28;20041;-65
2023/07/27 04:23:59;;;;;;;4.75;1.23;;;;;;;13.05;72.58;97579.59;10496323;28;20079;-65
2023/07/27 04:29:20;;;;;;;1.65;1.00;;;;;;;13.17;72.48;97586.59;10468196;28;20036;-65
2023/07/27 04:34:41;;;;;;;1.92;1.30;;;;;;;13.28;71.76;97581.56;10482233;28;20064;-65
2023/07/27 04:40:02;;;;;;;2.67;1.33;;;;;;;13.43;71.75;97578.19;10482006;28;20036;-65
2023/07/27 04:45:23;;;;;;;3.97;1.30;;;;;;;13.74;71.02;97588.94;10495900;28;20068;-65
2023/07/27 04:50:44;;;;;;;1.75;1.00;;;;;;;14.02;70.60;97584.81;10500829;28;20079;-65
2023/07/27 04:56:04;;;;;;;2.67;1.17;;;;;;;14.33;69.76;97589.88;10489510;28;20068;-65
2023/07/27 05:01:25;;;;;;;3.30;1.40;;;;;;;14.64;69.03;97601.91;10488988;28;20060;-65
2023/07/27 05:06:46;;;;;;;1.98;1.08;;;;;;;14.85;67.90;97601.56;10502736;28;20051;-65
2023/07/27 05:12:07;;;;;;;2.10;1.20;;;;;;;15.36;67.07;97601.16;10503982;28;20052;-65
2023/07/27 05:17:28;;;;;;;3.40;1.52;;;;;;;15.70;65.41;97597.13;10502572;28;20045;-65
2023/07/27 05:22:48;;;;;;;3.22;1.45;;;;;;;16.07;64.72;97590.31;10503483;28;20040;-65
2023/07/27 05:28:09;;;;;;;4.20;1.30;;;;;;;16.28;63.23;97592.63;10488123;28;20117;-65
2023/07/27 05:33:30;;;;;;;2.88;1.52;;;;;;;16.72;61.67;97593.09;10503489;28;20048;-65
2023/07/27 05:38:52;;;;;;;4.45;1.27;;;;;;;17.43;61.07;97593.06;10501639;28;20060;-65
2023/07/27 05:44:13;;;;;;;4.07;1.23;;;;;;;18.32;58.74;97589.25;10501495;28;20140;-65
2023/07/27 05:49:33;;;;;;;3.60;1.20;;;;;;;18.88;57.79;97584.06;10501510;28;20122;-64
2023/07/27 05:54:54;;;;;;;2.25;1.10;;;;;;;19.28;55.60;97601.59;10502032;28;20119;-64
2023/07/27 06:00:15;;;;;;;4.00;1.23;;;;;;;19.45;53.62;97594.34;10501798;28;20124;-65
2023/07/27 06:05:42;;;;;;;3.50;1.08;;;;;;;19.67;52.70;97595.03;10501081;28;20080;-65
2023/07/27 06:11:04;;;;;;;2.85;1.30;;;;;;;20.23;50.56;97594.47;10501313;28;20075;-66
2023/07/27 06:16:25;;;;;;;1.95;0.90;;;;;;;20.73;49.30;97594.38;10500171;28;20119;-65
2023/07/27 06:21:46;;;;;;;2.72;1.20;;;;;;;21.55;47.82;97594.94;10499764;28;20060;-65
2023/07/27 06:27:07;;;;;;;2.83;1.35;;;;;;;21.96;44.92;97585.16;10500629;28;20074;-65
2023/07/27 06:32:27;;;;;;;3.42;1.17;;;;;;;22.04;42.86;97581.03;10500015;28;20068;-65
2023/07/27 06:37:48;;;;;;;2.35;1.38;;;;;;;21.58;42.52;97582.22;10500143;28;20072;-65
2023/07/27 06:43:09;;;;;;;3.03;1.13;;;;;;;22.59;42.97;97591.34;10498676;28;20140;-66
2023/07/27 06:48:30;;;;;;;2.75;1.00;;;;;;;23.46;41.61;97579.97;10498714;28;20542;-66
2023/07/27 06:53:51;;;;;;;3.05;1.20;;;;;;;24.02;40.02;97582.13;10499307;28;20128;-66
2023/07/27 06:59:11;;;;;;;2.28;1.15;;;;;;;24.54;38.60;97579.16;10498020;28;20118;-65
2023/07/27 07:04:32;;;;;;;2.85;0.90;;;;;;;25.47;36.64;97575.63;10498777;28;20182;-66
2023/07/27 07:09:57;;;;;;;2.92;1.05;;;;;;;26.42;35.80;97581.78;10497786;28;20555;-66
2023/07/27 07:15:17;;;;;;;3.55;1.10;;;;;;;25.21;34.16;97579.75;10497137;28;20072;-65
2023/07/27 07:20:38;;;;;;;2.72;1.10;;;;;;;24.43;35.39;97563.38;10498374;28;20136;-65
2023/07/27 07:25:59;;;;;;;3.33;1.33;;;;;;;25.65;35.06;97570.00;10497522;28;20195;-66
2023/07/27 07:31:20;;;;;;;3.75;0.80;;;;;;;26.49;34.28;97579.66;10498599;28;20128;-66
2023/07/27 07:36:40;;;;;;;3.40;1.00;;;;;;;26.91;32.68;97579.00;10482941;28;20462;-66
2023/07/27 07:42:01;;;;;;;3.90;1.27;;;;;;;27.01;32.84;97570.41;10496901;28;20075;-66
2023/07/27 07:47:22;;;;;;;2.78;0.90;;;;;;;28.02;30.51;97574.53;10497949;28;20482;-66
2023/07/27 07:52:44;;;;;;;4.15;1.20;;;;;;;28.09;29.30;97572.38;10497735;28;20079;-66
2023/07/27 07:58:04;;;;;;;1.73;1.02;;;;;;;28.36;30.07;97564.34;10497398;28;20075;-66
2023/07/27 08:03:25;;;;;;;2.85;1.10;;;;;;;29.03;29.04;97563.88;10497531;28;20087;-66
2023/07/27 08:08:46;;;;;;;4.07;0.95;;;;;;;29.35;28.85;97554.97;10482398;28;20135;-66
2023/07/27 08:14:08;;;;;;;2.60;1.17;;;;;;;29.85;27.16;97564.53;10497361;28;20410;-66
2023/07/27 08:19:28;;;;;;;3.17;1.00;;;;;;;29.91;27.22;97550.03;10497385;28;20068;-66
2023/07/27 08:24:50;;;;;;;1.50;0.90;;;;;;;30.58;27.44;97539.09;10499027;28;20051;-66
2023/07/27 08:30:13;;;;;;;2.45;1.15;;;;;;;31.04;26.23;97540.53;10505307;28;20368;-66
2023/07/27 08:35:34;;;;;;;2.92;1.10;;;;;;;31.24;26.14;97525.09;10503946;28;20470;-66
2023/07/27 08:40:59;;;;;;;3.10;0.75;;;;;;;33.25;24.30;97529.34;10504964;28;20044;-66
2023/07/27 08:46:20;;;;;;;5.72;1.67;;;;;;;30.64;24.42;97519.59;10475907;28;20040;-66
2023/07/27 08:51:44;;;;;;;2.37;0.90;;;;;;;28.45;27.24;97516.91;10489422;28;20119;-66
2023/07/27 08:57:05;;;;;;;2.58;1.00;;;;;;;28.11;28.26;97526.44;10503283;28;20117;-66
2023/07/27 09:02:25;;;;;;;4.18;1.13;;;;;;;26.54;29.52;97532.47;10503888;28;20075;-65
2023/07/27 09:07:52;;;;;;;1.77;0.90;;;;;;;26.62;30.91;97517.44;10503811;28;20446;-66
2023/07/27 09:13:13;;;;;;;6.00;1.02;;;;;;;28.12;30.31;97510.66;10502412;28;20041;-66
2023/07/27 09:18:35;;;;;;;4.55;0.98;;;;;;;28.42;28.27;97501.16;10503302;28;20072;-66
2023/07/27 09:23:59;;;;;;;1.85;0.95;;;;;;;28.91;28.15;97518.03;10503320;28;20071;-67
2023/07/27 09:29:20;;;;;;;1.50;0.93;;;;;;;29.45;27.18;97499.53;10502089;28;20053;-66
2023/07/27 09:34:41;;;;;;;2.40;1.00;;;;;;;30.46;25.80;97496.81;10501573;28;20128;-66
2023/07/27 09:40:10;;;;;;;2.38;1.13;;;;;;;31.08;25.15;97487.88;10501822;28;20060;-66
2023/07/27 09:45:35;;;;;;;3.60;1.05;;;;;;;31.38;24.80;97487.34;10502333;28;20116;-66
2023/07/27 09:50:59;;;;;;;3.30;1.10;;;;;;;30.62;24.13;97482.16;10502645;28;20064;-66
2023/07/27 09:56:20;;;;;;;1.77;0.88;;;;;;;29.47;25.63;97470.75;10500940;28;20091;-66
2023/07/27 10:01:41;;;;;;;2.03;1.00;;;;;;;29.22;25.66;97453.06;10500751;28;20049;-66
2023/07/27 10:07:02;;;;;;;1.90;1.02;;;;;;;29.05;26.12;97455.41;10501269;28;20505;-66
2023/07/27 10:12:27;;;;;;;2.65;1.13;;;;;;;29.63;25.32;97438.25;10500583;28;20041;-66
2023/07/27 10:17:49;;;;;;;1.70;1.10;;;;;;;28.58;26.08;97432.16;10499819;28;20162;-66
2023/07/27 10:23:18;;;;;;;2.50;1.10;;;;;;;28.01;25.81;97420.38;10499692;28;20118;-66
2023/07/27 10:28:42;;;;;;;1.58;0.80;;;;;;;28.81;24.94;97406.81;10500782;28;20036;-67
2023/07/27 10:34:08;;;;;;;1.70;0.80;;;;;;;28.98;24.34;97401.63;10499387;28;20163;-66
2023/07/27 10:39:46;;;;;;;4.00;1.20;;;;;;;30.03;22.84;97413.25;10499286;28;20110;-66
2023/07/27 10:45:07;;;;;;;2.92;1.10;;;;;;;29.58;22.94;97411.69;10500164;28;20537;-66
2023/07/27 10:50:28;;;;;;;5.13;1.38;;;;;;;29.88;22.33;97386.84;10498851;28;20144;-66
2023/07/27 10:55:49;;;;;;;2.50;0.93;;;;;;;30.33;21.76;97389.78;10499571;28;20083;-66
2023/07/27 11:01:11;;;;;;;4.32;0.90;;;;;;;29.35;22.56;97362.41;10497993;28;20505;-66
2023/07/27 11:06:40;;;;;;;4.90;1.17;;;;;;;28.63;23.27;97367.50;10499545;28;20141;-66
2023/07/27 11:12:01;;;;;;;1.77;0.88;;;;;;;27.59;23.70;97351.03;10497817;28;20068;-66
2023/07/27 11:17:22;;;;;;;2.35;1.15;;;;;;;26.86;24.92;97334.19;10498700;28;20494;-66
2023/07/27 11:22:43;;;;;;;4.50;1.20;;;;;;;26.69;25.51;97332.81;10497836;28;20061;-66
2023/07/27 11:28:04;;;;;;;4.20;0.95;;;;;;;25.75;26.87;97337.84;10498407;28;20068;-66
2023/07/27 11:33:34;;;;;;;2.40;1.05;;;;;;;25.00;27.82;97329.75;10498419;28;20079;-65
2023/07/27 11:38:56;;;;;;;2.20;1.15;;;;;;;25.12;27.62;97324.13;10483768;28;20486;-66
2023/07/27 11:44:20;;;;;;;3.45;0.85;;;;;;;25.45;26.74;97319.19;10498033;28;20053;-66
2023/07/27 11:49:41;;;;;;;5.55;0.95;;;;;;;26.53;26.40;97299.22;10483139;28;20479;-65
2023/07/27 11:55:02;;;;;;;1.90;0.67;;;;;;;28.06;25.39;97284.78;10497856;28;20052;-65
2023/07/27 12:00:23;;;;;;;1.90;1.08;;;;;;;29.35;22.75;97299.16;10496644;28;20112;-66
2023/07/27 12:05:44;;;;;;;2.50;1.08;;;;;;;27.80;23.45;97299.34;10481846;28;20147;-66
2023/07/27 12:11:05;;;;;;;3.38;1.00;;;;;;;27.09;24.14;97286.84;10496214;28;20068;-66
2023/07/27 12:16:26;;;;;;;1.38;0.60;;;;;;;27.02;24.87;97278.97;10497277;28;20080;-66
2023/07/27 12:22:07;;;;;;;1.98;0.70;;;;;;;27.59;24.89;97287.28;10497028;28;20121;-66
2023/07/27 12:27:47;;;;;;;1.75;1.02;;;;;;;28.07;24.09;97266.13;10496027;28;20120;-66
2023/07/27 12:33:28;;;;;;;3.53;1.20;;;;;;;27.46;24.43;97268.75;10497289;28;20044;-66
2023/07/27 12:38:52;;;;;;;1.60;0.80;;;;;;;27.81;24.55;97263.50;10496522;28;20075;-66
2023/07/27 12:44:13;;;;;;;1.58;0.70;;;;;;;27.62;24.51;97262.91;10496699;28;20166;-65
2023/07/27 12:49:34;;;;;;;1.50;0.82;;;;;;;27.10;24.79;97259.63;10496523;28;20124;-66
2023/07/27 12:54:54;;;;;;;2.72;0.90;;;;;;;25.99;25.88;97248.53;10496559;28;20394;-66
2023/07/27 13:00:16;;;;;;;4.28;1.30;;;;;;;25.45;26.88;97241.34;10496410;28;20045;-66
2023/07/27 13:05:36;;;;;;;4.10;1.20;;;;;;;25.35;27.23;97253.47;10494284;28;20076;-66
2023/07/27 13:10:57;;;;;;;3.20;0.75;;;;;;;25.33;27.49;97245.63;10499261;28;20037;-66
2023/07/27 13:16:18;;;;;;;4.35;1.00;;;;;;;25.18;28.33;97247.00;10503513;28;20079;-65
2023/07/27 13:21:39;;;;;;;2.28;0.82;;;;;;;24.72;28.48;97242.59;10503374;28;20384;-65
2023/07/27 13:26:59;;;;;;;1.73;0.82;;;;;;;24.92;28.28;97244.81;10501737;28;20068;-65
2023/07/27 13:32:20;;;;;;;3.90;1.10;;;;;;;24.87;28.08;97231.22;10502872;28;20064;-65
2023/07/27 13:37:41;;;;;;;1.00;0.73;;;;;;;24.46;28.89;97236.75;10487483;28;20111;-65
2023/07/27 13:43:02;;;;;;;3.20;1.00;;;;;;;24.70;28.79;97219.03;10501412;28;20112;-66
2023/07/27 13:48:23;;;;;;;4.30;0.80;;;;;;;24.61;29.21;97209.00;10502108;28;20041;-65
2023/07/27 13:53:43;;;;;;;2.80;0.80;;;;;;;24.41;29.85;97213.19;10487067;28;20128;-66
2023/07/27 13:59:04;;;;;;;2.17;0.98;;;;;;;23.92;30.64;97223.59;10501830;28;20041;-65
2023/07/27 14:04:25;;;;;;;1.85;0.82;;;;;;;23.72;31.64;97234.84;10500469;28;20076;-66
2023/07/27 14:09:46;;;;;;;3.38;0.90;;;;;;;23.38;32.73;97225.28;10501541;28;20170;-65
2023/07/27 14:15:07;;;;;;;2.65;0.80;;;;;;;23.14;33.25;97211.53;10500010;28;20125;-66
2023/07/27 14:20:29;;;;;;;3.35;0.90;;;;;;;22.95;33.67;97221.31;10499997;28;20068;-65
2023/07/27 14:25:50;;;;;;;1.90;0.90;;;;;;;22.61;34.65;97226.59;10499630;28;20170;-65
2023/07/27 14:31:10;;;;;;;3.60;0.90;;;;;;;22.36;35.38;97209.22;10500557;28;20117;-65
2023/07/27 14:36:33;;;;;;;;;;;;;;;21.94;35.41;97204.38;10501001;28;20068;-65
2023/07/27 14:41:58;;;;;;;3.78;0.77;;;;;;;21.61;35.72;97208.13;10500034;28;20007;-65
2023/07/27 14:47:18;;;;;;;2.05;1.00;;;;;;;21.50;35.89;97201.56;10499894;28;20110;-65
2023/07/27 14:52:39;;;;;;;2.08;0.90;;;;;;;21.04;36.44;97188.03;10499643;28;20041;-65
2023/07/27 14:58:00;;;;;;;1.65;0.98;;;;;;;20.94;36.54;97172.91;10499474;28;20072;-65
2023/07/27 15:03:21;;;;;;;2.65;0.93;;;;;;;20.82;36.95;97173.41;10499283;28;20079;-65
2023/07/27 15:08:42;;;;;;;1.88;0.75;;;;;;;20.65;37.38;97172.41;10499096;28;20045;-65
2023/07/27 15:14:03;;;;;;;1.92;1.00;;;;;;;20.38;37.78;97178.94;10497764;28;20067;-65
2023/07/27 15:19:24;;;;;;;4.60;1.00;;;;;;;20.14;38.56;97156.47;10497572;28;20079;-65
2023/07/27 15:24:44;;;;;;;1.73;0.80;;;;;;;20.10;39.05;97151.47;10483413;28;20190;-65
2023/07/27 15:30:07;;;;;;;2.38;0.85;;;;;;;20.16;39.80;97148.72;10498368;28;20482;-65
2023/07/27 15:35:33;;;;;;;2.35;1.15;;;;;;;20.24;40.15;97131.19;10497833;28;20116;-66
2023/07/27 15:40:58;;;;;;;2.80;0.95;;;;;;;20.30;40.27;97140.53;10483968;28;20407;-65
2023/07/27 15:46:18;;;;;;;1.95;1.00;;;;;;;20.18;40.83;97134.63;10483163;28;20064;-66
2023/07/27 15:51:39;;;;;;;3.30;1.45;;;;;;;20.07;41.05;97123.75;10497802;28;20145;-65
2023/07/27 15:57:00;;;;;;;1.98;0.77;;;;;;;20.07;41.32;97135.78;10497439;28;20052;-65
2023/07/27 16:02:21;;;;;;;1.80;0.90;;;;;;;20.00;42.17;97131.41;10497671;28;20077;-65
2023/07/27 16:07:42;;;;;;;2.78;1.02;;;;;;;20.00;42.75;97131.41;10497182;28;20041;-65
2023/07/27 16:13:03;;;;;;;4.05;0.90;;;;;;;19.98;42.66;97139.88;10496090;28;20036;-66
2023/07/27 16:18:24;;;;;;;2.13;1.10;;;;;;;19.64;44.81;97143.38;10497017;28;20056;-65
2023/07/27 16:23:45;;;;;;;1.85;1.13;;;;;;;19.12;47.57;97137.91;10496111;28;20119;-65
2023/07/27 16:29:06;;;;;;;2.47;1.10;;;;;;;19.11;48.25;97144.25;10497209;28;20111;-65
2023/07/27 16:34:28;;;;;;;3.33;1.35;;;;;;;18.94;49.53;97145.94;10496877;28;20075;-64
2023/07/27 16:39:49;;;;;;;2.97;1.08;;;;;;;18.79;51.56;97147.69;10496973;28;20107;-65
2023/07/27 16:45:12;;;;;;;2.90;1.45;;;;;;;18.56;53.41;97151.28;10497420;28;20045;-65
2023/07/27 16:50:34;;;;;;;5.73;1.40;;;;;;;18.29;54.84;97158.31;10504756;28;20120;-65
2023/07/27 16:55:55;;;;;;;2.55;1.50;;;;;;;17.98;57.17;97148.25;10503548;28;20821;-65
2023/07/27 17:01:16;;;;;;;2.97;1.50;;;;;;;17.86;58.95;97150.72;10504003;28;20125;-64
2023/07/27 17:06:37;;;;;;;3.83;1.48;;;;;;;17.82;60.90;97140.03;10503972;28;20052;-64
2023/07/27 17:11:58;;;;;;;2.88;1.20;;;;;;;17.74;61.48;97142.59;10502879;28;20072;-64
2023/07/27 17:17:18;;;;;;;3.72;1.60;;;;;;;17.66;63.01;97139.50;10502883;28;20138;-64
2023/07/27 17:22:39;;;;;;;3.25;1.52;;;;;;;17.53;64.30;97138.44;10503380;28;20128;-65
2023/07/27 17:28:00;;;;;;;3.10;1.40;;;;;;;17.38;65.79;97140.09;10502270;28;20132;-65
2023/07/27 17:33:21;;;;;;;3.83;1.65;;;;;;;17.36;66.21;97133.66;10502099;28;20052;-65
2023/07/27 17:38:41;;;;;;;3.53;1.50;;;;;;;17.27;67.16;97118.56;10488009;28;20072;-65
2023/07/27 17:44:02;;;;;;;2.97;1.40;;;;;;;17.22;67.82;97119.13;10502847;28;20052;-65
2023/07/27 17:49:23;;;;;;;3.75;1.60;;;;;;;17.12;68.52;97125.16;10502536;28;20040;-64
2023/07/27 17:54:44;;;;;;;3.75;1.70;;;;;;;16.95;70.23;97103.44;10487382;28;20120;-64
2023/07/27 18:00:05;;;;;;;4.57;1.50;;;;;;;16.92;70.87;97104.78;10501967;28;20048;-64
2023/07/27 18:05:31;;;;;;;3.45;1.80;;;;;;;16.84;71.18;97108.75;10501439;28;20076;-64
2023/07/27 18:10:52;;;;;;;4.03;1.80;;;;;;;16.67;72.53;97118.00;10501664;28;20115;-66
2023/07/27 18:16:13;;;;;;;2.85;1.60;;;;;;;16.52;73.64;97108.38;10501384;28;20055;-64
2023/07/27 18:21:35;;;;;;;4.03;1.80;;;;;;;16.47;74.72;97100.44;10499953;28;20623;-66
2023/07/27 18:26:56;;;;;;;3.92;1.83;;;;;;;16.37;75.34;97094.44;10499809;28;20051;-63
2023/07/27 18:32:17;;;;;;;3.38;1.80;;;;;;;16.20;76.40;97090.34;10500699;28;20106;-63
2023/07/27 18:37:38;;;;;;;3.38;1.75;;;;;;;16.15;77.38;97088.75;10500328;28;20107;-64
2023/07/27 18:42:58;;;;;;;2.55;1.40;;;;;;;16.11;77.87;97092.16;10500301;28;20128;-63
2023/07/27 18:48:20;;;;;;;3.60;1.90;;;;;;;16.09;78.41;97080.81;10499824;28;20044;-64
2023/07/27 18:53:41;;;;;;;2.55;1.63;;;;;;;16.02;79.43;97084.81;10498735;28;20454;-63
2023/07/27 18:59:02;;;;;;;2.15;1.38;;;;;;;15.99;79.70;97083.28;10499726;28;20097;-64
2023/07/27 19:04:22;;;;;;;2.85;1.38;;;;;;;15.97;80.42;97083.22;10498231;28;20467;-63
2023/07/27 19:09:44;;;;;;;2.78;1.60;;;;;;;16.00;80.33;97082.63;10498512;28;20131;-63
2023/07/27 19:15:07;;;;;;;3.17;1.30;;;;;;;16.04;80.48;97084.88;10498815;28;20105;-64
2023/07/27 19:20:28;;;;;;;2.22;1.15;;;;;;;16.10;80.41;97075.91;10483836;28;20445;-64
2023/07/27 19:25:49;;;;;;;3.97;1.30;;;;;;;16.12;80.47;97081.63;10497319;28;20072;-63
2023/07/27 19:31:09;;;;;;;3.80;1.83;;;;;;;16.22;80.23;97079.16;10498717;28;20072;-63
2023/07/27 19:36:30;;;;;;;2.50;1.20;;;;;;;16.23;80.23;97072.16;10497443;28;20504;-64
2023/07/27 19:41:51;;;;;;;3.85;1.27;;;;;;;16.34;79.80;97073.22;10498005;28;20056;-64
2023/07/27 19:47:12;;;;;;;2.42;1.30;;;;;;;16.37;79.72;97069.09;10483046;28;20509;-64
2023/07/27 19:52:33;;;;;;;2.40;1.08;;;;;;;16.38;79.48;97067.72;10497772;28;20482;-64
2023/07/27 19:57:54;;;;;;;2.00;1.08;;;;;;;16.39;79.07;97052.97;10497762;28;20132;-64
2023/07/27 20:03:15;;;;;;;2.10;1.20;;;;;;;16.36;78.85;97050.75;10497573;28;20084;-64
2023/07/27 20:08:36;;;;;;;4.22;1.38;;;;;;;16.36;79.06;97045.13;10497709;28;20036;-64
2023/07/27 20:14:11;;;;;;;2.67;1.02;;;;;;;16.45;79.06;97044.03;10497716;28;20044;-63
2023/07/27 20:19:52;;;;;;;2.33;0.90;;;;;;;16.51;78.38;97061.16;10499719;28;20044;-64
2023/07/27 20:25:13;;;;;;;3.35;1.20;;;;;;;16.54;78.22;97051.38;10506011;28;20493;-64
2023/07/27 20:30:34;;;;;;;2.72;1.40;;;;;;;16.61;77.95;97044.56;10505872;28;20120;-64
2023/07/27 20:35:55;;;;;;;2.45;0.80;;;;;;;16.65;77.41;97044.69;10504402;28;20048;-64
2023/07/27 20:41:17;;;;;;;3.00;1.15;;;;;;;16.64;77.48;97043.25;10505496;28;20064;-64
2023/07/27 20:46:37;;;;;;;1.83;1.10;;;;;;;16.74;77.54;97054.16;10504993;28;20167;-64
2023/07/27 20:51:58;;;;;;;5.47;1.10;;;;;;;16.74;77.20;97043.59;10504903;28;20119;-64
2023/07/27 20:57:19;;;;;;;3.30;1.40;;;;;;;16.66;77.33;97043.31;10503509;28;20478;-64
2023/07/27 21:02:41;;;;;;;2.92;1.10;;;;;;;16.65;77.63;97041.16;10504280;28;20064;-64
2023/07/27 21:08:01;;;;;;;3.08;1.10;;;;;;;16.53;77.92;97041.47;10504309;28;20050;-64
2023/07/27 21:13:22;;;;;;;2.22;1.20;;;;;;;16.49;78.40;97035.69;10489114;28;20170;-64
2023/07/27 21:18:43;;;;;;;3.60;1.23;;;;;;;16.43;78.94;97027.06;10502777;28;20086;-63
2023/07/27 21:24:04;;;;;;;2.97;1.02;;;;;;;16.40;79.79;97026.25;10502632;28;20111;-64
2023/07/27 21:29:24;;;;;;;4.05;1.30;;;;;;;16.42;80.45;97008.72;10503371;28;20060;-64
2023/07/27 21:34:45;;;;;;;5.68;1.58;;;;;;;16.38;80.53;97017.03;10502686;28;20116;-64
2023/07/27 21:40:07;;;;;;;2.83;1.45;;;;;;;16.42;81.00;97005.91;10503073;28;20040;-64
2023/07/27 21:45:33;;;;;;;4.53;1.38;;;;;;;16.48;81.29;97006.81;10502757;28;20119;-64
2023/07/27 21:50:54;;;;;;;4.00;1.38;;;;;;;16.51;81.25;97016.06;10501400;28;20132;-64
2023/07/27 21:56:15;;;;;;;2.97;1.20;;;;;;;16.59;81.03;97013.50;10501449;28;20068;-64
2023/07/27 22:01:36;;;;;;;2.78;1.20;;;;;;;16.61;80.88;97007.94;10501835;28;20060;-64
2023/07/27 22:06:56;;;;;;;3.50;1.40;;;;;;;16.58;80.85;97020.50;10501718;28;20158;-64
2023/07/27 22:12:17;;;;;;;5.72;1.25;;;;;;;16.65;81.12;97019.34;10501519;28;20506;-64
2023/07/27 22:17:38;;;;;;;4.10;1.40;;;;;;;16.72;80.82;97004.09;10501538;28;20486;-64
2023/07/27 22:22:59;;;;;;;2.58;1.00;;;;;;;16.75;80.86;96994.31;10486351;28;20129;-64
2023/07/27 22:28:19;;;;;;;3.10;1.33;;;;;;;16.78;80.42;96997.91;10500022;28;20041;-64
2023/07/27 22:33:40;;;;;;;3.17;1.27;;;;;;;16.68;80.91;96998.31;10500017;28;20051;-64
2023/07/27 22:39:01;;;;;;;6.05;1.45;;;;;;;16.58;80.92;96993.06;10499708;28;20076;-64
2023/07/27 22:44:21;;;;;;;2.88;1.52;;;;;;;16.52;81.85;96998.50;10499398;28;20490;-64
2023/07/27 22:49:43;;;;;;;3.88;1.70;;;;;;;16.53;82.16;96990.78;10499181;28;20390;-64
2023/07/27 22:55:04;;;;;;;5.45;1.65;;;;;;;16.55;82.49;96996.47;10485079;28;20094;-64
2023/07/27 23:00:25;;;;;;;4.25;1.58;;;;;;;16.57;82.79;96993.72;10498581;28;20048;-64
2023/07/27 23:05:45;;;;;;;3.28;1.20;;;;;;;16.51;83.20;96993.53;10484193;28;20609;-64
2023/07/27 23:11:06;;;;;;;2.13;1.30;;;;;;;16.53;83.54;96982.31;10498513;28;20116;-64
2023/07/27 23:16:27;;;;;;;3.58;1.73;;;;;;;16.58;83.45;96976.16;10484037;28;20048;-64
2023/07/27 23:21:48;;;;;;;3.03;1.70;;;;;;;16.53;84.07;96973.88;10498230;28;20090;-64
2023/07/27 23:27:08;;;;;;;4.15;1.48;;;;;;;16.53;84.14;96973.88;10499419;28;20032;-64
2023/07/27 23:32:29;;;;;;;4.30;1.50;;;;;;;16.54;84.33;96964.03;10498713;28;20068;-64
2023/07/27 23:37:50;;;;;;;3.92;1.55;;;;;;;16.54;84.63;96964.03;10497671;28;20067;-64
2023/07/27 23:43:11;;;;;;;3.45;1.30;;;;;;;16.53;84.81;96951.34;10499439;28;20494;-66
2023/07/27 23:48:31;;;;;;;3.15;1.75;;;;;;;16.54;85.45;96955.59;10501357;28;20091;-64
2023/07/27 23:53:52;;;;;;;4.03;1.50;;;;;;;16.52;85.07;96956.25;10485032;28;20079;-64
2023/07/27 23:59:13;;;;;;;3.08;1.63;;;;;;;16.53;85.50;96954.88;10497975;28;20068;-65
